Time;durP1;ratioP1;P1;durP2;ratioP2;P2;SDS_P1;SDS_P2;PMS_P1;PMS_P2;Temp;Humidity;BMP_temperature;BMP_pressure;BME280_temperature;BME280_humidity;BME280_pressure;Samples;Min_cycle;Max_cycle;Signal;HPM_P1;HPM_P2
2022/09/21 00:01:16;;;;;;;20.02;14.60;;;4.30;99.90;;;;;;5016490;28;20064;-79
2022/09/21 00:03:43;;;;;;;14.00;12.55;;;4.20;99.90;;;;;;5033236;28;20041;-79
2022/09/21 00:06:13;;;;;;;15.55;11.65;;;4.10;99.90;;;;;;5041568;28;20076;-79
2022/09/21 00:08:41;;;;;;;20.08;13.65;;;4.10;99.90;;;;;;5049845;28;20055;-79
2022/09/21 00:11:16;;;;;;;14.02;12.43;;;4.30;99.90;;;;;;5019091;28;20045;-79
2022/09/21 00:13:45;;;;;;;13.85;12.55;;;4.30;99.90;;;;;;5036998;28;20067;-79
2022/09/21 00:16:14;;;;;;;13.35;12.05;;;4.10;99.90;;;;;;5045915;28;20068;-79
2022/09/21 00:18:41;;;;;;;12.48;11.68;;;4.00;99.90;;;;;;5040872;28;20045;-80
2022/09/21 00:21:10;;;;;;;13.18;11.90;;;3.90;99.90;;;;;;5028829;28;20069;-79
2022/09/21 00:23:38;;;;;;;14.45;12.52;;;3.80;99.90;;;;;;5033588;28;20040;-79
2022/09/21 00:26:11;;;;;;;14.63;13.02;;;4.00;99.90;;;;;;5035076;28;20047;-80
2022/09/21 00:28:39;;;;;;;16.25;13.90;;;4.00;99.90;;;;;;5015249;28;20675;-79
2022/09/21 00:31:11;;;;;;;20.08;12.90;;;3.90;99.90;;;;;;5046578;28;20047;-79
2022/09/21 00:33:39;;;;;;;14.57;13.02;;;3.90;99.90;;;;;;5027011;28;20082;-78
2022/09/21 00:36:11;;;;;;;14.75;13.38;;;3.80;99.90;;;;;;5045253;28;20063;-79
2022/09/21 00:38:38;;;;;;;24.90;16.15;;;3.80;99.90;;;;;;5026162;28;21043;-79
2022/09/21 00:41:07;;;;;;;24.15;15.43;;;3.80;99.90;;;;;;5031173;28;20040;-79
2022/09/21 00:43:41;;;;;;;94.70;20.13;;;3.80;99.90;;;;;;5015160;28;20132;-79
2022/09/21 00:46:28;;;;;;;56.10;15.07;;;3.80;99.90;;;;;;5033342;28;20045;-79
2022/09/21 00:48:56;;;;;;;34.08;16.17;;;3.80;99.90;;;;;;5048768;28;20052;-79
2022/09/21 00:51:24;;;;;;;39.40;16.13;;;3.80;99.90;;;;;;5039961;28;20417;-80
2022/09/21 00:53:57;;;;;;;68.32;18.55;;;3.80;99.90;;;;;;5035091;28;20045;-78
2022/09/21 00:56:25;;;;;;;31.70;16.23;;;3.70;99.90;;;;;;5035164;28;20041;-79
2022/09/21 00:58:53;;;;;;;27.55;14.80;;;3.80;99.90;;;;;;5042245;28;20041;-79
2022/09/21 01:01:21;;;;;;;23.52;14.90;;;3.90;99.90;;;;;;5025033;28;21014;-79
2022/09/21 01:03:51;;;;;;;22.95;14.23;;;3.90;99.90;;;;;;5019896;28;20091;-79
2022/09/21 01:06:19;;;;;;;21.45;13.35;;;3.90;99.90;;;;;;5028227;28;20033;-79
2022/09/21 01:08:53;;;;;;;20.45;13.63;;;3.80;99.90;;;;;;5032879;28;20124;-79
2022/09/21 01:11:58;;;;;;;27.80;12.95;;;3.70;99.90;;;;;;5037711;28;20402;-79
2022/09/21 01:15:03;;;;;;;22.23;12.38;;;3.90;99.90;;;;;;5048719;28;20040;-79
2022/09/21 01:17:50;;;;;;;29.17;12.88;;;4.00;99.90;;;;;;5035346;28;20056;-79
2022/09/21 01:20:31;;;;;;;55.92;13.73;;;3.90;99.90;;;;;;5039246;28;20055;-80
2022/09/21 01:23:39;;;;;;;41.78;13.95;;;3.90;99.90;;;;;;5028759;28;20053;-79
2022/09/21 01:26:45;;;;;;;33.20;13.00;;;3.80;99.90;;;;;;5046886;28;20502;-79
2022/09/21 01:29:18;;;;;;;53.15;14.35;;;3.90;99.90;;;;;;5049030;28;20053;-78
2022/09/21 01:31:55;;;;;;;37.50;14.63;;;4.00;99.90;;;;;;5046078;28;20029;-79
2022/09/21 01:34:32;;;;;;;33.53;13.52;;;4.00;99.90;;;;;;5048454;28;20041;-80
2022/09/21 01:37:05;;;;;;;24.33;13.18;;;3.80;99.90;;;;;;5028779;28;20044;-78
2022/09/21 01:39:34;;;;;;;26.15;12.70;;;3.90;99.90;;;;;;5032073;28;20126;-77
2022/09/21 01:42:04;;;;;;;34.22;13.52;;;3.90;99.90;;;;;;5042407;28;20155;-79
2022/09/21 01:44:34;;;;;;;57.33;17.55;;;3.90;99.90;;;;;;5036320;28;20059;-78
2022/09/21 01:47:03;;;;;;;96.10;25.25;;;3.90;99.90;;;;;;5041235;28;20032;-79
2022/09/21 01:49:34;;;;;;;44.28;18.75;;;3.70;99.90;;;;;;5036255;28;20047;-79
2022/09/21 01:52:19;;;;;;;44.03;19.02;;;3.70;99.90;;;;;;5033748;28;20041;-78
2022/09/21 01:54:57;;;;;;;39.10;17.20;;;3.80;99.90;;;;;;5042238;28;20429;-79
2022/09/21 01:57:33;;;;;;;204.63;36.08;;;3.90;99.90;;;;;;5028138;28;20102;-78
2022/09/21 02:00:00;;;;;;;44.92;16.08;;;3.90;99.90;;;;;;5040097;28;20041;-78
2022/09/21 02:02:51;;;;;;;168.65;26.70;;;3.70;99.90;;;;;;5044382;28;20682;-77
2022/09/21 02:05:25;;;;;;;117.70;21.77;;;3.70;99.90;;;;;;5048009;28;20037;-78
2022/09/21 02:07:52;;;;;;;58.03;17.63;;;3.50;99.90;;;;;;5049808;28;20051;-78
2022/09/21 02:10:23;;;;;;;60.13;16.75;;;3.50;99.90;;;;;;5040539;28;20608;-78
2022/09/21 02:12:56;;;;;;;64.97;18.48;;;3.50;99.90;;;;;;5046315;28;20072;-78
2022/09/21 02:15:46;;;;;;;62.53;17.13;;;3.40;99.90;;;;;;5047753;28;20115;-77
2022/09/21 02:18:19;;;;;;;49.22;16.55;;;3.30;99.90;;;;;;5015656;28;20114;-77
2022/09/21 02:20:54;;;;;;;43.42;16.67;;;3.30;99.90;;;;;;5032204;28;20040;-77
2022/09/21 02:23:42;;;;;;;46.67;18.48;;;3.30;99.90;;;;;;5030573;28;20044;-77
2022/09/21 02:26:16;;;;;;;39.97;16.33;;;3.20;99.90;;;;;;5044801;28;20100;-79
2022/09/21 02:28:58;;;;;;;41.28;17.05;;;3.20;99.90;;;;;;5031007;28;20498;-78
2022/09/21 02:31:33;;;;;;;48.65;18.88;;;3.10;99.90;;;;;;5045226;28;20071;-77
2022/09/21 02:34:03;;;;;;;35.88;17.90;;;3.10;99.90;;;;;;5035518;28;20497;-78
2022/09/21 02:36:43;;;;;;;38.03;17.65;;;3.20;99.90;;;;;;5018872;28;20051;-78
2022/09/21 02:39:18;;;;;;;29.80;17.17;;;3.10;99.90;;;;;;5023069;28;20044;-78
2022/09/21 02:42:02;;;;;;;30.67;18.52;;;3.10;99.90;;;;;;5045163;28;20044;-78
2022/09/21 02:44:39;;;;;;;31.55;17.85;;;3.10;99.90;;;;;;5047411;28;20596;-78
2022/09/21 02:47:18;;;;;;;31.40;17.52;;;3.10;99.90;;;;;;5030644;28;20390;-79
2022/09/21 02:49:50;;;;;;;29.88;18.15;;;3.20;99.90;;;;;;5044282;28;20041;-78
2022/09/21 02:52:19;;;;;;;26.80;19.50;;;3.10;99.90;;;;;;5025362;28;20163;-78
2022/09/21 02:54:48;;;;;;;26.45;18.33;;;3.10;99.90;;;;;;5020171;28;20049;-78
2022/09/21 02:57:17;;;;;;;27.88;17.73;;;3.20;99.90;;;;;;5042219;28;20040;-78
2022/09/21 02:59:45;;;;;;;29.35;17.85;;;3.20;99.90;;;;;;5049314;28;20052;-78
2022/09/21 03:02:12;;;;;;;27.17;17.02;;;3.20;99.90;;;;;;5035963;28;20058;-79
2022/09/21 03:04:42;;;;;;;30.67;17.10;;;3.30;99.90;;;;;;5026710;28;20106;-79
2022/09/21 03:07:09;;;;;;;66.25;17.65;;;3.30;99.90;;;;;;5037517;28;20041;-81
2022/09/21 03:09:36;;;;;;;75.13;17.75;;;3.30;99.90;;;;;;5045655;28;20053;-81
2022/09/21 03:12:03;;;;;;;67.97;18.00;;;3.30;99.90;;;;;;5029887;28;20049;-78
2022/09/21 03:14:31;;;;;;;45.00;16.95;;;3.30;99.90;;;;;;5030506;28;20529;-78
2022/09/21 03:17:01;;;;;;;45.60;16.83;;;3.20;99.90;;;;;;5035054;28;20519;-79
2022/09/21 03:19:28;;;;;;;34.67;16.25;;;3.20;99.90;;;;;;5020833;28;20068;-78
2022/09/21 03:21:55;;;;;;;27.15;15.32;;;3.20;99.90;;;;;;5032078;28;20722;-78
2022/09/21 03:27:08;;;;;;;37.47;17.85;;;2.90;99.90;;;;;;5040515;28;20043;-78
2022/09/21 03:29:34;;;;;;;26.08;15.95;;;2.90;99.90;;;;;;5035305;28;20517;-78
2022/09/21 03:32:02;;;;;;;26.23;16.33;;;3.00;99.90;;;;;;5040550;28;20055;-78
2022/09/21 03:34:30;;;;;;;20.30;14.68;;;3.00;99.90;;;;;;5032611;28;20041;-78
2022/09/21 03:36:56;;;;;;;27.85;15.27;;;3.00;99.90;;;;;;5031528;28;20049;-78
2022/09/21 03:39:24;;;;;;;27.02;15.00;;;2.90;99.90;;;;;;5042569;28;20079;-77
2022/09/21 03:41:51;;;;;;;30.38;16.15;;;2.90;99.90;;;;;;5027149;28;20032;-78
2022/09/21 03:44:18;;;;;;;31.13;17.45;;;2.80;99.90;;;;;;5036305;28;20055;-78
2022/09/21 03:46:45;;;;;;;34.50;17.25;;;2.70;99.90;;;;;;5050619;28;20064;-79
2022/09/21 03:49:16;;;;;;;43.88;17.98;;;2.60;99.90;;;;;;5014778;28;20067;-79
2022/09/21 03:51:43;;;;;;;47.80;18.77;;;2.60;99.90;;;;;;5041067;28;20044;-78
2022/09/21 03:54:11;;;;;;;46.70;19.40;;;2.60;99.90;;;;;;5042748;28;20405;-78
2022/09/21 03:56:40;;;;;;;45.40;18.38;;;2.70;99.90;;;;;;5034490;28;20041;-80
2022/09/21 03:59:07;;;;;;;39.58;18.02;;;2.90;99.90;;;;;;5032563;28;20048;-78
2022/09/21 04:01:39;;;;;;;41.08;18.45;;;2.90;99.90;;;;;;5053617;28;20533;-78
2022/09/21 04:04:06;;;;;;;36.13;17.17;;;2.90;99.90;;;;;;5047703;28;20064;-79
2022/09/21 04:06:33;;;;;;;39.17;18.95;;;3.00;99.90;;;;;;5045689;28;20063;-78
2022/09/21 04:09:03;;;;;;;38.72;21.00;;;2.90;99.90;;;;;;5040342;28;20045;-80
2022/09/21 04:11:32;;;;;;;45.85;23.50;;;3.00;99.90;;;;;;5035199;28;20067;-80
2022/09/21 04:13:58;;;;;;;51.63;20.55;;;2.90;99.90;;;;;;5044419;28;20525;-80
2022/09/21 04:16:26;;;;;;;42.80;18.92;;;2.80;99.90;;;;;;5030726;28;20052;-79
2022/09/21 04:18:53;;;;;;;36.53;19.05;;;2.70;99.90;;;;;;5036092;28;20064;-80
2022/09/21 04:21:21;;;;;;;46.40;21.92;;;2.70;99.90;;;;;;5015048;28;20044;-79
2022/09/21 04:23:48;;;;;;;47.70;21.80;;;2.70;99.90;;;;;;5037116;28;20041;-79
2022/09/21 04:26:22;;;;;;;43.72;22.55;;;2.70;99.90;;;;;;5017700;28;20123;-80
2022/09/21 04:28:49;;;;;;;53.33;21.65;;;2.80;99.90;;;;;;5041106;28;20056;-80
2022/09/21 04:31:16;;;;;;;64.43;23.95;;;2.70;99.90;;;;;;5041248;28;20499;-80
2022/09/21 04:33:43;;;;;;;79.28;27.05;;;2.60;99.90;;;;;;5046603;28;20057;-79
2022/09/21 04:36:10;;;;;;;73.95;27.67;;;2.60;99.90;;;;;;5017370;28;20049;-79
2022/09/21 04:38:37;;;;;;;45.60;23.55;;;2.60;99.90;;;;;;5032196;28;20051;-79
2022/09/21 04:41:03;;;;;;;50.28;24.75;;;2.60;99.90;;;;;;5026285;28;20040;-79
2022/09/21 04:43:30;;;;;;;59.05;25.15;;;2.70;99.90;;;;;;5044434;28;20044;-79
2022/09/21 04:45:57;;;;;;;87.50;25.42;;;2.70;99.90;;;;;;5039020;28;20048;-79
2022/09/21 04:48:24;;;;;;;150.90;31.55;;;2.90;99.90;;;;;;5042340;28;20127;-80
2022/09/21 04:50:50;;;;;;;98.35;28.33;;;3.00;99.90;;;;;;5043554;28;20048;-79
2022/09/21 04:53:17;;;;;;;90.35;28.30;;;2.80;99.90;;;;;;5038608;28;20156;-79
2022/09/21 04:55:45;;;;;;;95.75;26.88;;;2.70;99.90;;;;;;5028463;28;20693;-80
2022/09/21 04:58:12;;;;;;;124.45;31.77;;;2.70;99.90;;;;;;5044901;28;20047;-79
2022/09/21 05:00:38;;;;;;;96.13;28.45;;;2.70;99.90;;;;;;5031045;28;20850;-81
2022/09/21 05:03:05;;;;;;;91.85;30.85;;;2.80;99.90;;;;;;5043852;28;20040;-79
2022/09/21 05:05:32;;;;;;;121.60;33.28;;;2.70;99.90;;;;;;5033584;28;20037;-79
2022/09/21 05:07:59;;;;;;;107.72;32.88;;;2.70;99.90;;;;;;5039728;28;20051;-79
2022/09/21 05:10:25;;;;;;;68.43;31.40;;;2.90;99.90;;;;;;5027424;28;20144;-79
2022/09/21 05:12:53;;;;;;;79.95;31.73;;;2.70;99.90;;;;;;5010314;28;20045;-79
2022/09/21 05:15:21;;;;;;;215.88;37.33;;;2.60;99.90;;;;;;5025782;28;20710;-79
2022/09/21 05:17:47;;;;;;;57.50;27.73;;;2.60;99.90;;;;;;5026114;28;20049;-79
2022/09/21 05:20:14;;;;;;;67.82;27.63;;;2.50;99.90;;;;;;5020802;28;20051;-79
2022/09/21 05:22:41;;;;;;;60.85;27.30;;;2.30;99.90;;;;;;5041012;28;20040;-78
2022/09/21 05:25:08;;;;;;;58.92;30.05;;;2.20;99.90;;;;;;5039983;28;20044;-79
2022/09/21 05:27:35;;;;;;;90.82;41.00;;;2.20;99.90;;;;;;5048056;28;20047;-79
2022/09/21 05:30:02;;;;;;;76.82;37.13;;;2.20;99.90;;;;;;5048254;28;20041;-79
2022/09/21 05:32:35;;;;;;;80.93;36.17;;;2.30;99.90;;;;;;5035248;28;20048;-78
2022/09/21 05:35:26;;;;;;;78.68;36.88;;;2.40;99.90;;;;;;5038131;28;20061;-79
2022/09/21 05:37:59;;;;;;;80.47;33.75;;;2.40;99.90;;;;;;5041730;28;20044;-79
2022/09/21 05:40:26;;;;;;;165.32;42.97;;;2.60;99.90;;;;;;5031975;28;20071;-80
2022/09/21 05:42:53;;;;;;;128.43;42.15;;;2.70;99.90;;;;;;5054209;28;20651;-79
2022/09/21 05:45:21;;;;;;;95.60;33.83;;;2.80;99.90;;;;;;5038475;28;20397;-79
2022/09/21 05:47:57;;;;;;;100.22;32.25;;;2.80;99.90;;;;;;5049368;28;20045;-79
2022/09/21 05:50:42;;;;;;;100.65;30.85;;;3.00;99.90;;;;;;5045647;28;20048;-79
2022/09/21 05:53:24;;;;;;;;;;;3.00;99.90;;;;;;5042533;28;20041;-79
2022/09/21 05:55:56;;;;;;;191.32;39.53;;;3.00;99.90;;;;;;5046301;28;20420;-79
2022/09/21 05:58:38;;;;;;;172.30;38.42;;;3.00;99.90;;;;;;5041418;28;20044;-78
2022/09/21 06:01:22;;;;;;;198.88;38.53;;;3.20;99.90;;;;;;5032064;28;20072;-79
2022/09/21 06:03:49;;;;;;;1034.20;126.95;;;3.20;99.90;;;;;;5035652;28;20044;-79
2022/09/21 06:06:18;;;;;;;167.23;37.00;;;3.10;99.90;;;;;;5036037;28;20500;-79
2022/09/21 06:08:44;;;;;;;294.55;51.72;;;3.00;99.90;;;;;;5047862;28;20753;-79
2022/09/21 06:11:12;;;;;;;127.63;35.70;;;3.10;99.90;;;;;;5028483;28;20045;-80
2022/09/21 06:13:42;;;;;;;110.88;34.97;;;3.20;99.90;;;;;;5042094;28;20047;-79
2022/09/21 06:16:09;;;;;;;96.72;33.97;;;3.30;99.90;;;;;;5049231;28;20047;-79
2022/09/21 06:18:38;;;;;;;102.38;35.72;;;3.30;99.90;;;;;;5030901;28;20070;-79
2022/09/21 06:21:06;;;;;;;88.55;36.90;;;3.40;99.90;;;;;;5041027;28;20039;-79
2022/09/21 06:23:34;;;;;;;82.45;34.90;;;3.50;99.90;;;;;;5026362;28;20032;-79
2022/09/21 06:26:01;;;;;;;84.60;34.42;;;3.50;99.90;;;;;;5027793;28;20039;-79
2022/09/21 06:28:28;;;;;;;89.18;33.47;;;3.60;99.90;;;;;;5038034;28;20067;-79
2022/09/21 06:30:56;;;;;;;106.53;40.95;;;3.60;99.90;;;;;;5033857;28;20047;-79
2022/09/21 06:33:24;;;;;;;92.20;36.83;;;3.60;99.90;;;;;;5033784;28;20087;-81
2022/09/21 06:35:57;;;;;;;87.90;36.13;;;3.80;99.90;;;;;;5046585;28;20119;-79
2022/09/21 06:38:26;;;;;;;81.50;35.28;;;3.80;99.90;;;;;;5038702;28;20056;-79
2022/09/21 06:40:54;;;;;;;79.55;35.58;;;3.90;99.90;;;;;;5045722;28;20429;-79
2022/09/21 06:43:21;;;;;;;78.70;34.05;;;4.00;99.90;;;;;;5037352;28;20572;-79
2022/09/21 06:45:56;;;;;;;75.88;35.25;;;4.20;99.90;;;;;;5051228;28;20051;-79
2022/09/21 06:48:24;;;;;;;82.18;38.05;;;4.40;99.90;;;;;;5032249;28;20044;-79
2022/09/21 06:50:59;;;;;;;86.25;41.28;;;4.50;99.90;;;;;;5048774;28;20068;-79
2022/09/21 06:53:27;;;;;;;75.28;37.58;;;4.60;99.90;;;;;;5041272;28;20139;-79
2022/09/21 06:56:00;;;;;;;57.25;30.40;;;4.70;99.90;;;;;;5038636;28;20032;-80
2022/09/21 06:58:28;;;;;;;59.42;31.60;;;4.90;99.90;;;;;;5033228;28;20084;-79
2022/09/21 07:00:55;;;;;;;57.88;28.45;;;4.90;99.90;;;;;;5053367;28;20036;-79
2022/09/21 07:03:22;;;;;;;60.65;29.67;;;5.10;99.90;;;;;;5025135;28;20575;-79
2022/09/21 07:05:49;;;;;;;50.35;27.48;;;5.20;99.90;;;;;;5026021;28;20047;-79
2022/09/21 07:08:15;;;;;;;52.33;29.33;;;5.30;99.90;;;;;;5035653;28;20049;-79
2022/09/21 07:11:02;;;;;;;52.97;26.95;;;5.40;99.90;;;;;;5020893;28;20037;-79
2022/09/21 07:13:30;;;;;;;56.22;34.75;;;5.60;99.90;;;;;;5014666;28;20055;-79
2022/09/21 07:15:57;;;;;;;51.05;29.83;;;5.60;99.90;;;;;;5035460;28;20123;-79
2022/09/21 07:18:24;;;;;;;70.38;40.35;;;5.70;99.90;;;;;;5039591;28;20115;-79
2022/09/21 07:20:51;;;;;;;80.72;45.35;;;5.90;99.90;;;;;;5051055;28;20183;-80
2022/09/21 07:23:19;;;;;;;67.38;36.03;;;6.20;99.90;;;;;;5026384;28;20563;-79
2022/09/21 07:25:49;;;;;;;60.58;33.15;;;6.30;99.90;;;;;;5042535;28;20101;-80
2022/09/21 07:28:16;;;;;;;57.80;31.05;;;6.50;99.90;;;;;;5035629;28;20140;-79
2022/09/21 07:30:43;;;;;;;64.40;30.58;;;6.80;99.90;;;;;;5021940;28;20614;-80
2022/09/21 07:33:10;;;;;;;207.93;48.83;;;7.30;99.90;;;;;;5034124;28;20131;-80
2022/09/21 07:35:36;;;;;;;54.00;27.65;;;7.90;99.90;;;;;;5021778;28;20052;-80
2022/09/21 07:38:07;;;;;;;42.22;24.38;;;8.50;99.90;;;;;;5033588;28;20041;-80
2022/09/21 07:40:34;;;;;;;38.78;23.58;;;9.10;99.90;;;;;;5038277;28;20227;-79
2022/09/21 07:43:01;;;;;;;25.92;20.17;;;9.60;99.90;;;;;;5041225;28;20091;-79
2022/09/21 07:45:29;;;;;;;25.33;20.58;;;9.90;99.90;;;;;;5041511;28;20116;-79
2022/09/21 07:48:04;;;;;;;26.98;21.17;;;10.30;99.90;;;;;;5035438;28;20041;-79
2022/09/21 07:50:35;;;;;;;23.15;20.92;;;10.60;99.90;;;;;;5040139;28;20432;-79
2022/09/21 07:53:02;;;;;;;22.55;20.42;;;11.00;99.90;;;;;;5042525;28;20055;-79
2022/09/21 07:55:29;;;;;;;27.25;24.65;;;11.30;99.90;;;;;;5020001;28;20066;-81
2022/09/21 08:00:41;;;;;;;31.65;28.83;;;11.70;99.90;;;;;;5044332;28;20041;-80
2022/09/21 08:03:08;;;;;;;30.83;28.38;;;12.00;99.90;;;;;;5018130;28;20557;-81
2022/09/21 08:05:34;;;;;;;30.52;28.10;;;12.30;99.90;;;;;;5012271;28;20520;-81
2022/09/21 08:08:01;;;;;;;32.85;29.95;;;12.60;99.90;;;;;;5036839;28;20040;-81
2022/09/21 08:10:29;;;;;;;31.33;28.73;;;12.40;99.90;;;;;;5030943;28;20048;-81
2022/09/21 08:12:56;;;;;;;32.45;29.70;;;12.20;99.90;;;;;;5047586;28;20036;-82
2022/09/21 08:15:23;;;;;;;32.95;30.48;;;12.60;99.90;;;;;;5036675;28;20636;-82
2022/09/21 08:18:10;;;;;;;36.85;34.05;;;13.10;99.90;;;;;;5046308;28;20040;-83
2022/09/21 08:20:36;;;;;;;35.22;32.28;;;13.50;99.90;;;;;;5043694;28;20037;-83
2022/09/21 08:23:03;;;;;;;34.53;32.08;;;13.90;99.90;;;;;;5029361;28;20513;-82
2022/09/21 08:25:31;;;;;;;34.58;31.90;;;14.00;99.90;;;;;;5052090;28;20061;-82
2022/09/21 08:27:59;;;;;;;35.45;32.28;;;14.40;99.90;;;;;;5037491;28;20048;-82
2022/09/21 08:30:27;;;;;;;36.00;33.13;;;14.50;99.90;;;;;;5042273;28;20106;-82
2022/09/21 08:32:54;;;;;;;36.40;33.35;;;14.60;99.90;;;;;;5037203;28;20051;-82
2022/09/21 08:35:21;;;;;;;34.47;31.83;;;14.50;99.90;;;;;;5039862;28;20049;-83
2022/09/21 08:37:49;;;;;;;36.13;33.03;;;14.70;99.90;;;;;;5044925;28;20041;-83
2022/09/21 08:40:18;;;;;;;35.30;32.60;;;14.50;99.90;;;;;;5035486;28;20044;-82
2022/09/21 08:42:59;;;;;;;34.83;31.80;;;14.80;99.90;;;;;;5059949;28;20503;-83
2022/09/21 08:45:34;;;;;;;33.78;31.20;;;14.80;99.90;;;;;;5011102;28;20052;-81
2022/09/21 08:48:09;;;;;;;35.30;32.03;;;15.00;99.90;;;;;;5052463;28;20041;-81
2022/09/21 08:50:45;;;;;;;34.90;32.25;;;15.20;99.90;;;;;;5042407;28;20040;-81
2022/09/21 08:53:24;;;;;;;34.35;31.92;;;14.90;99.90;;;;;;5063234;28;20055;-81
2022/09/21 08:55:54;;;;;;;34.92;32.00;;;14.80;99.90;;;;;;5053071;28;20409;-81
2022/09/21 08:58:23;;;;;;;32.67;30.08;;;14.80;99.90;;;;;;5024140;28;20045;-82
2022/09/21 09:01:19;;;;;;;29.88;27.65;;;15.10;99.90;;;;;;5039005;28;20060;-81
2022/09/21 09:04:04;;;;;;;;;;;15.30;99.90;;;;;;5045823;28;20048;-81
2022/09/21 09:06:56;;;;;;;32.70;30.13;;;15.40;99.90;;;;;;5036647;28;20282;-80
2022/09/21 09:09:42;;;;;;;30.17;27.73;;;15.10;99.90;;;;;;5059586;28;20053;-83
2022/09/21 09:12:21;;;;;;;;;;;14.80;99.90;;;;;;5056175;28;20045;-81
2022/09/21 09:15:04;;;;;;;32.92;30.05;;;14.60;99.90;;;;;;5035552;28;19924;-80
2022/09/21 09:17:46;;;;;;;30.88;28.42;;;14.60;99.90;;;;;;5045775;28;20041;-81
2022/09/21 09:20:25;;;;;;;30.02;27.63;;;14.70;99.90;;;;;;5049552;28;20045;-81
2022/09/21 09:22:52;;;;;;;29.75;27.27;;;14.60;99.90;;;;;;5057548;28;20051;-82
2022/09/21 09:25:21;;;;;;;30.38;27.77;;;14.80;99.90;;;;;;5042193;28;20618;-80
2022/09/21 09:27:53;;;;;;;30.23;27.92;;;14.70;99.90;;;;;;5033690;28;20053;-82
2022/09/21 09:30:22;;;;;;;30.58;28.38;;;14.70;99.90;;;;;;5049427;28;20472;-82
2022/09/21 09:33:10;;;;;;;31.95;29.38;;;14.70;99.90;;;;;;5040614;28;20068;-80
2022/09/21 09:35:45;;;;;;;32.05;29.48;;;15.00;99.90;;;;;;5040851;28;20037;-80
2022/09/21 09:38:31;;;;;;;32.28;29.45;;;15.30;99.90;;;;;;5035945;28;20095;-80
2022/09/21 09:41:00;;;;;;;;;;;15.30;99.90;;;;;;5059155;28;20068;-81
2022/09/21 09:43:35;;;;;;;30.92;28.63;;;15.50;99.90;;;;;;5022158;28;19927;-80
2022/09/21 09:46:21;;;;;;;29.20;26.90;;;15.90;99.90;;;;;;5044229;28;20044;-81
2022/09/21 09:49:05;;;;;;;30.00;27.60;;;16.00;99.90;;;;;;5031818;28;20912;-80
2022/09/21 09:51:35;;;;;;;31.05;28.83;;;15.60;99.90;;;;;;5046568;28;20220;-80
2022/09/21 09:54:02;;;;;;;31.67;29.30;;;15.80;99.90;;;;;;5055681;28;20045;-79
2022/09/21 09:56:35;;;;;;;29.88;27.65;;;16.10;99.90;;;;;;5045773;28;20047;-80
2022/09/21 09:59:07;;;;;;;29.83;27.15;;;16.00;99.90;;;;;;5036816;28;20045;-81
2022/09/21 10:01:38;;;;;;;30.15;28.05;;;16.20;99.90;;;;;;5034070;28;20048;-79
2022/09/21 10:04:07;;;;;;;30.58;28.38;;;16.40;99.90;;;;;;5052401;28;20079;-80
2022/09/21 10:06:35;;;;;;;28.77;26.75;;;16.30;99.90;;;;;;5027571;28;20557;-78
2022/09/21 10:09:33;;;;;;;31.65;29.50;;;16.50;99.90;;;;;;5027094;28;20052;-78
2022/09/21 10:12:15;;;;;;;32.25;30.20;;;16.60;99.90;;;;;;5034436;28;20115;-80
2022/09/21 10:14:50;;;;;;;31.70;29.40;;;16.40;99.90;;;;;;5031125;28;20036;-79
2022/09/21 10:17:18;;;;;;;31.02;28.88;;;16.40;99.90;;;;;;5042186;28;20587;-78
2022/09/21 10:19:47;;;;;;;32.40;30.10;;;16.70;99.90;;;;;;5054295;28;20041;-79
2022/09/21 10:22:18;;;;;;;30.58;28.63;;;17.30;99.90;;;;;;5039524;28;20041;-81
2022/09/21 10:24:52;;;;;;;32.67;30.40;;;17.10;99.90;;;;;;5032305;28;20095;-79
2022/09/21 10:27:26;;;;;;;30.42;28.50;;;16.90;99.90;;;;;;5024984;28;20053;-79
2022/09/21 10:29:53;;;;;;;30.88;28.98;;;17.10;99.90;;;;;;5042963;28;20048;-79
2022/09/21 10:32:24;;;;;;;30.30;27.92;;;17.50;99.90;;;;;;5031294;28;20048;-79
2022/09/21 10:35:04;;;;;;;30.27;28.10;;;17.90;99.90;;;;;;5037111;28;20041;-79
2022/09/21 10:37:36;;;;;;;29.77;27.65;;;18.10;99.90;;;;;;5039928;28;20064;-77
2022/09/21 10:40:04;;;;;;;30.15;27.88;;;17.80;99.90;;;;;;5047195;28;20041;-79
2022/09/21 10:42:36;;;;;;;28.83;26.88;;;17.60;99.90;;;;;;5053808;28;20045;-77
2022/09/21 10:45:20;;;;;;;29.38;27.33;;;17.10;99.90;;;;;;5038769;28;20041;-78
2022/09/21 10:48:05;;;;;;;31.77;29.67;;;16.40;99.90;;;;;;5043877;28;20553;-77
2022/09/21 10:50:45;;;;;;;31.65;29.60;;;16.20;99.90;;;;;;5045494;28;20084;-77
2022/09/21 10:53:33;;;;;;;30.95;29.10;;;16.20;99.90;;;;;;5032023;28;20120;-78
2022/09/21 10:56:03;;;;;;;31.48;29.27;;;16.20;99.90;;;;;;5030672;28;20037;-77
2022/09/21 10:59:21;;;;;;;31.33;28.83;;;16.00;99.90;;;;;;5026174;28;20037;-77
2022/09/21 11:01:50;;;;;;;29.95;27.70;;;15.80;99.90;;;;;;5046190;28;20048;-78
2022/09/21 11:04:19;;;;;;;31.10;28.75;;;15.80;99.90;;;;;;5044096;28;20091;-78
2022/09/21 11:06:51;;;;;;;27.85;26.17;;;15.70;99.90;;;;;;5051824;28;20037;-77
2022/09/21 11:09:27;;;;;;;29.67;27.83;;;15.50;99.90;;;;;;5059546;28;20049;-77
2022/09/21 11:12:03;;;;;;;29.67;27.55;;;14.70;99.90;;;;;;5047748;28;20044;-77
2022/09/21 11:14:41;;;;;;;;;;;14.80;99.90;;;;;;5038070;28;20159;-78
2022/09/21 11:17:24;;;;;;;29.45;27.52;;;14.90;99.90;;;;;;5030898;28;19927;-77
2022/09/21 11:20:13;;;;;;;27.20;25.50;;;15.10;99.90;;;;;;5040596;28;20043;-78
2022/09/21 11:22:52;;;;;;;31.30;29.35;;;15.00;99.90;;;;;;5038233;28;20057;-78
2022/09/21 11:25:41;;;;;;;29.58;27.52;;;15.10;99.90;;;;;;5041927;28;20060;-77
2022/09/21 11:28:26;;;;;;;30.88;28.70;;;15.50;99.90;;;;;;5043429;28;20487;-78
2022/09/21 11:31:15;;;;;;;31.10;28.77;;;15.80;99.90;;;;;;5038633;28;20072;-78
2022/09/21 11:34:00;;;;;;;29.73;27.67;;;15.70;99.90;;;;;;5040870;28;20920;-77
2022/09/21 11:36:37;;;;;;;29.88;27.88;;;16.00;99.90;;;;;;5026019;28;20048;-78
2022/09/21 11:39:13;;;;;;;29.95;27.65;;;15.90;99.90;;;;;;5042154;28;20084;-78
2022/09/21 11:42:22;;;;;;;29.90;27.88;;;15.80;99.90;;;;;;5024228;28;21993;-78
2022/09/21 11:44:57;;;;;;;28.88;26.70;;;15.60;99.90;;;;;;5024897;28;20552;-77
2022/09/21 11:47:46;;;;;;;28.88;26.77;;;15.50;99.90;;;;;;5028599;28;20116;-76
2022/09/21 11:50:36;;;;;;;28.02;26.23;;;15.50;99.90;;;;;;5051101;28;20045;-77
2022/09/21 11:53:25;;;;;;;29.15;27.23;;;15.60;99.90;;;;;;5045922;28;20045;-78
2022/09/21 11:55:52;;;;;;;28.20;26.25;;;15.60;99.90;;;;;;5031894;28;20044;-77
2022/09/21 11:58:41;;;;;;;28.10;26.20;;;15.20;99.90;;;;;;5049413;28;20920;-77
2022/09/21 12:01:35;;;;;;;29.10;27.20;;;15.20;99.90;;;;;;5040240;28;20128;-78
2022/09/21 12:04:26;;;;;;;27.63;25.58;;;15.00;99.90;;;;;;5034869;28;20044;-77
2022/09/21 12:07:01;;;;;;;29.35;27.45;;;15.10;99.90;;;;;;5042532;28;20060;-77
2022/09/21 12:09:58;;;;;;;29.48;27.48;;;14.80;99.90;;;;;;5037345;28;20629;-77
2022/09/21 12:12:45;;;;;;;30.60;28.40;;;14.60;99.90;;;;;;5033698;28;20036;-78
2022/09/21 12:15:21;;;;;;;29.17;27.33;;;14.80;99.90;;;;;;5041638;28;20049;-78
2022/09/21 12:18:08;;;;;;;28.90;27.00;;;15.10;99.90;;;;;;5040339;28;20045;-77
2022/09/21 12:20:59;;;;;;;27.50;25.55;;;15.30;99.90;;;;;;5029163;28;20048;-77
2022/09/21 12:23:42;;;;;;;28.67;26.77;;;15.70;99.90;;;;;;5029311;28;20502;-76
2022/09/21 12:26:17;;;;;;;28.73;26.73;;;15.70;99.90;;;;;;5030307;28;20048;-77
2022/09/21 12:28:52;;;;;;;28.92;27.08;;;15.90;99.90;;;;;;5042760;28;20055;-77
2022/09/21 12:31:57;;;;;;;30.42;28.38;;;16.10;99.90;;;;;;5044408;28;20147;-76
2022/09/21 12:34:30;;;;;;;30.70;28.48;;;16.20;99.90;;;;;;4998744;28;20301;-77
2022/09/21 12:37:26;;;;;;;30.15;28.15;;;16.00;99.90;;;;;;5037292;28;20063;-77
2022/09/21 12:40:01;;;;;;;30.75;28.65;;;16.30;99.90;;;;;;5048171;28;20342;-77
2022/09/21 12:42:28;;;;;;;;;;;16.40;99.90;;;;;;5026510;28;20093;-76
2022/09/21 12:45:12;;;;;;;30.60;28.60;;;16.50;99.90;;;;;;5024168;28;19935;-76
2022/09/21 12:47:55;;;;;;;32.17;30.20;;;16.60;99.90;;;;;;5043953;28;20049;-77
2022/09/21 12:50:43;;;;;;;31.67;29.70;;;16.50;99.90;;;;;;5048728;28;20130;-78
2022/09/21 12:53:22;;;;;;;31.88;29.67;;;16.60;99.90;;;;;;5042233;28;20067;-77
2022/09/21 12:55:59;;;;;;;30.33;28.33;;;16.60;99.90;;;;;;5045462;28;20059;-78
2022/09/21 12:58:41;;;;;;;31.40;29.05;;;16.40;99.90;;;;;;5029434;28;20047;-78
2022/09/21 13:01:32;;;;;;;30.13;28.20;;;16.40;99.90;;;;;;5037947;28;20128;-77
2022/09/21 13:04:18;;;;;;;29.50;27.08;;;16.50;99.90;;;;;;5050211;28;20060;-77
2022/09/21 13:07:07;;;;;;;29.83;27.83;;;16.30;99.90;;;;;;5034071;28;20052;-76
2022/09/21 13:09:41;;;;;;;31.05;29.00;;;16.10;99.90;;;;;;5049888;28;20051;-76
2022/09/21 13:12:12;;;;;;;30.03;27.77;;;16.10;99.90;;;;;;5032412;28;20649;-76